Time;durP1;ratioP1;P1;durP2;ratioP2;P2;SDS_P1;SDS_P2;PMS_P1;PMS_P2;Temp;Humidity;BMP_temperature;BMP_pressure;BME280_temperature;BME280_humidity;BME280_pressure;Samples;Min_cycle;Max_cycle;Signal;HPM_P1;HPM_P2
2023/09/10 00:01:13;;;;;;;38.97;34.83;;;;;;;;;;5093941;28;20806;-60
2023/09/10 00:03:41;;;;;;;35.83;32.40;;;;;;;;;;5093844;28;20446;-61
2023/09/10 00:06:10;;;;;;;36.80;33.30;;;;;;;;;;5093991;28;20517;-60
2023/09/10 00:08:37;;;;;;;37.33;33.43;;;;;;;;;;5094138;28;20490;-60
2023/09/10 00:11:05;;;;;;;37.47;33.77;;;;;;;;;;5093848;28;20443;-61
2023/09/10 00:13:33;;;;;;;38.33;34.60;;;;;;;;;;5093727;28;20482;-61
2023/09/10 00:16:00;;;;;;;40.30;36.10;;;;;;;;;;5093459;28;20436;-60
2023/09/10 00:18:27;;;;;;;38.00;34.43;;;;;;;;;;5093416;28;20964;-60
2023/09/10 00:20:56;;;;;;;39.73;35.50;;;;;;;;;;5093575;28;20447;-60
2023/09/10 00:23:23;;;;;;;38.90;35.00;;;;;;;;;;5093410;28;20449;-60
2023/09/10 00:25:51;;;;;;;41.80;37.80;;;;;;;;;;5093489;28;20793;-61
2023/09/10 00:28:18;;;;;;;41.60;37.27;;;;;;;;;;5093034;28;20500;-60
2023/09/10 00:30:45;;;;;;;41.33;37.30;;;;;;;;;;5092924;28;20880;-60
2023/09/10 00:33:12;;;;;;;38.77;34.97;;;;;;;;;;5093188;28;20485;-60
2023/09/10 00:35:39;;;;;;;40.93;36.97;;;;;;;;;;5092874;28;20534;-61
2023/09/10 00:38:08;;;;;;;40.67;36.70;;;;;;;;;;5092910;28;20530;-60
2023/09/10 00:40:35;;;;;;;40.97;36.90;;;;;;;;;;5092798;28;20482;-60
2023/09/10 00:43:02;;;;;;;41.97;37.97;;;;;;;;;;5092932;28;20933;-60
2023/09/10 00:45:31;;;;;;;41.67;37.43;;;;;;;;;;5092948;28;20529;-60
2023/09/10 00:47:58;;;;;;;42.67;37.50;;;;;;;;;;5093598;28;20435;-60
2023/09/10 00:50:25;;;;;;;45.63;40.97;;;;;;;;;;5092558;28;20525;-60
2023/09/10 00:52:55;;;;;;;43.07;38.67;;;;;;;;;;5092527;28;20435;-60
2023/09/10 00:55:24;;;;;;;39.63;35.63;;;;;;;;;;5092730;28;20954;-60
2023/09/10 00:57:51;;;;;;;41.50;37.30;;;;;;;;;;5092616;28;20531;-60
2023/09/10 01:00:19;;;;;;;39.93;36.10;;;;;;;;;;5092695;28;21018;-60
2023/09/10 01:02:47;;;;;;;42.33;38.00;;;;;;;;;;5092904;28;20438;-60
2023/09/10 01:05:14;;;;;;;41.10;37.20;;;;;;;;;;5092722;28;20487;-61
2023/09/10 01:07:41;;;;;;;42.40;38.00;;;;;;;;;;5092576;28;20435;-61
2023/09/10 01:10:09;;;;;;;43.10;38.73;;;;;;;;;;5092810;28;20835;-60
2023/09/10 01:12:51;;;;;;;42.90;38.80;;;;;;;;;;5092794;28;20433;-60
2023/09/10 01:15:24;;;;;;;42.93;38.70;;;;;;;;;;5092997;28;20471;-60
2023/09/10 01:17:55;;;;;;;46.87;38.47;;;;;;;;;;5092646;28;20493;-62
2023/09/10 01:20:29;;;;;;;42.60;38.60;;;;;;;;;;5092987;28;20526;-61
2023/09/10 01:23:03;;;;;;;41.53;37.50;;;;;;;;;;5092830;28;20431;-61
2023/09/10 01:25:32;;;;;;;41.60;37.40;;;;;;;;;;5093334;28;20418;-61
2023/09/10 01:28:04;;;;;;;43.63;39.10;;;;;;;;;;5092346;28;20962;-61
2023/09/10 01:30:31;;;;;;;43.90;39.77;;;;;;;;;;5092989;28;20522;-60
2023/09/10 01:33:03;;;;;;;43.50;39.40;;;;;;;;;;5092597;28;20932;-60
2023/09/10 01:35:34;;;;;;;44.83;40.73;;;;;;;;;;5092350;28;20855;-60
2023/09/10 01:38:04;;;;;;;46.50;41.77;;;;;;;;;;5092485;28;20446;-60
2023/09/10 01:40:35;;;;;;;44.20;39.73;;;;;;;;;;5092670;28;20430;-60
2023/09/10 01:43:05;;;;;;;46.10;41.57;;;;;;;;;;5092685;28;20427;-60
2023/09/10 01:45:33;;;;;;;45.33;40.77;;;;;;;;;;5092869;28;20469;-60
2023/09/10 01:48:01;;;;;;;48.10;41.93;;;;;;;;;;5092427;28;20529;-60
2023/09/10 01:50:30;;;;;;;45.03;40.30;;;;;;;;;;5092433;28;20475;-60
2023/09/10 01:52:57;;;;;;;44.40;39.70;;;;;;;;;;5092484;28;20801;-61
2023/09/10 01:55:25;;;;;;;45.23;40.67;;;;;;;;;;5092443;28;20479;-60
2023/09/10 01:57:55;;;;;;;45.13;40.83;;;;;;;;;;5093572;28;20451;-60
2023/09/10 02:00:22;;;;;;;43.83;39.57;;;;;;;;;;5096213;28;20430;-60
2023/09/10 02:02:50;;;;;;;46.63;41.97;;;;;;;;;;5095929;28;20529;-60
2023/09/10 02:05:17;;;;;;;43.27;39.20;;;;;;;;;;5096028;28;20445;-60
2023/09/10 02:07:44;;;;;;;45.60;41.10;;;;;;;;;;5096202;28;20769;-60
2023/09/10 02:10:11;;;;;;;46.67;42.23;;;;;;;;;;5096343;28;20529;-60
2023/09/10 02:12:38;;;;;;;44.10;39.90;;;;;;;;;;5095827;28;20455;-60
2023/09/10 02:15:12;;;;;;;45.00;40.60;;;;;;;;;;5095756;28;20558;-61
2023/09/10 02:17:40;;;;;;;41.83;37.63;;;;;;;;;;5096081;28;20426;-61
2023/09/10 02:20:09;;;;;;;44.00;39.80;;;;;;;;;;5096468;28;20565;-61
2023/09/10 02:22:37;;;;;;;45.10;40.57;;;;;;;;;;5095307;28;20975;-61
2023/09/10 02:25:05;;;;;;;46.13;41.43;;;;;;;;;;5095567;28;20488;-60
2023/09/10 02:27:32;;;;;;;46.20;41.90;;;;;;;;;;5095529;28;20550;-61
2023/09/10 02:29:59;;;;;;;46.33;41.37;;;;;;;;;;5095204;28;20450;-60
2023/09/10 02:32:28;;;;;;;46.97;42.43;;;;;;;;;;5095220;28;20435;-61
2023/09/10 02:34:55;;;;;;;44.17;39.67;;;;;;;;;;5095432;28;20485;-61
2023/09/10 02:37:22;;;;;;;43.13;39.00;;;;;;;;;;5095157;28;21009;-61
2023/09/10 02:39:49;;;;;;;43.20;38.90;;;;;;;;;;5095344;28;20441;-61
2023/09/10 02:42:17;;;;;;;45.57;40.87;;;;;;;;;;5095193;28;20434;-60
2023/09/10 02:44:44;;;;;;;46.67;42.17;;;;;;;;;;5094943;28;20454;-61
2023/09/10 02:47:11;;;;;;;46.57;42.07;;;;;;;;;;5094840;28;20449;-61
2023/09/10 02:49:40;;;;;;;44.70;40.30;;;;;;;;;;5094895;28;20501;-60
2023/09/10 02:52:07;;;;;;;48.90;43.60;;;;;;;;;;5095195;28;20431;-60
2023/09/10 02:54:35;;;;;;;47.37;42.70;;;;;;;;;;5094975;28;20475;-60
2023/09/10 02:57:03;;;;;;;46.90;42.53;;;;;;;;;;5095013;28;20449;-60
2023/09/10 02:59:30;;;;;;;47.53;42.80;;;;;;;;;;5094852;28;20439;-60
2023/09/10 03:01:57;;;;;;;45.53;40.83;;;;;;;;;;5094879;28;20442;-60
2023/09/10 03:04:24;;;;;;;47.20;42.20;;;;;;;;;;5094833;28;20536;-60
2023/09/10 03:06:53;;;;;;;46.47;42.07;;;;;;;;;;5094853;28;20438;-60
2023/09/10 03:09:20;;;;;;;46.10;41.30;;;;;;;;;;5094308;28;20962;-60
2023/09/10 03:11:47;;;;;;;44.47;40.03;;;;;;;;;;5094661;28;20442;-60
2023/09/10 03:14:16;;;;;;;44.40;40.20;;;;;;;;;;5094613;28;20532;-60
2023/09/10 03:16:43;;;;;;;45.17;40.77;;;;;;;;;;5094599;28;20537;-60
2023/09/10 03:19:10;;;;;;;44.90;40.57;;;;;;;;;;5094154;28;20537;-60
2023/09/10 03:21:38;;;;;;;46.27;41.53;;;;;;;;;;5094583;28;20445;-60
2023/09/10 03:24:07;;;;;;;46.57;41.97;;;;;;;;;;5094142;28;20450;-60
2023/09/10 03:26:34;;;;;;;45.33;40.90;;;;;;;;;;5094615;28;20537;-60
2023/09/10 03:29:02;;;;;;;44.97;40.57;;;;;;;;;;5094372;28;20494;-61
2023/09/10 03:31:30;;;;;;;44.00;39.70;;;;;;;;;;5094700;28;20867;-61
2023/09/10 03:33:57;;;;;;;44.70;40.27;;;;;;;;;;5093895;28;20446;-61
2023/09/10 03:36:24;;;;;;;44.80;40.20;;;;;;;;;;5093922;28;20434;-61
2023/09/10 03:38:51;;;;;;;43.73;39.43;;;;;;;;;;5094107;28;20768;-60
2023/09/10 03:41:20;;;;;;;43.30;39.07;;;;;;;;;;5093942;28;20445;-60
2023/09/10 03:43:47;;;;;;;46.70;42.10;;;;;;;;;;5093796;28;20956;-61
2023/09/10 03:46:14;;;;;;;47.23;42.63;;;;;;;;;;5094734;28;20817;-61
2023/09/10 03:48:42;;;;;;;47.43;42.43;;;;;;;;;;5094135;28;20499;-61
2023/09/10 03:51:09;;;;;;;46.57;41.87;;;;;;;;;;5091851;28;20475;-61
2023/09/10 03:53:36;;;;;;;45.50;40.90;;;;;;;;;;5092853;28;20449;-61
2023/09/10 03:56:03;;;;;;;48.47;43.23;;;;;;;;;;5093170;28;21006;-61
2023/09/10 03:58:32;;;;;;;47.13;42.50;;;;;;;;;;5093660;28;20553;-61
2023/09/10 04:00:59;;;;;;;46.57;41.87;;;;;;;;;;5093207;28;20451;-61
2023/09/10 04:03:26;;;;;;;48.13;43.30;;;;;;;;;;5093498;28;20866;-61
2023/09/10 04:05:54;;;;;;;46.57;42.03;;;;;;;;;;5093637;28;20453;-60
2023/09/10 04:08:21;;;;;;;47.80;43.00;;;;;;;;;;5093575;28;20789;-60
2023/09/10 04:10:48;;;;;;;49.00;43.80;;;;;;;;;;5093534;28;20442;-61
2023/09/10 04:13:15;;;;;;;48.97;44.20;;;;;;;;;;5093712;28;20462;-61
2023/09/10 04:15:44;;;;;;;48.77;43.90;;;;;;;;;;5093373;28;20570;-60
2023/09/10 04:18:11;;;;;;;49.93;44.93;;;;;;;;;;5093382;28;20443;-61
2023/09/10 04:20:38;;;;;;;50.03;45.10;;;;;;;;;;5093084;28;20442;-60
2023/09/10 04:23:05;;;;;;;50.90;45.67;;;;;;;;;;5093212;28;20824;-60
2023/09/10 04:25:32;;;;;;;48.73;43.43;;;;;;;;;;5092860;28;20451;-61
2023/09/10 04:28:00;;;;;;;51.07;45.70;;;;;;;;;;5093462;28;20522;-60
2023/09/10 04:30:27;;;;;;;50.40;45.20;;;;;;;;;;5093146;28;20439;-60
2023/09/10 04:32:55;;;;;;;48.63;43.83;;;;;;;;;;5093206;28;20434;-61
2023/09/10 04:35:23;;;;;;;48.03;43.43;;;;;;;;;;5092755;28;20997;-60
2023/09/10 04:37:50;;;;;;;47.63;43.13;;;;;;;;;;5093203;28;20469;-60
2023/09/10 04:40:17;;;;;;;49.20;44.40;;;;;;;;;;5092879;28;20474;-60
2023/09/10 04:42:44;;;;;;;47.10;42.37;;;;;;;;;;5093051;28;20485;-61
2023/09/10 04:45:12;;;;;;;50.93;45.83;;;;;;;;;;5092994;28;20537;-60
2023/09/10 04:47:39;;;;;;;50.23;44.87;;;;;;;;;;5092981;28;20528;-60
2023/09/10 04:50:08;;;;;;;50.43;45.27;;;;;;;;;;5092866;28;20476;-60
2023/09/10 04:52:36;;;;;;;47.90;43.20;;;;;;;;;;5092981;28;20817;-60
2023/09/10 04:55:03;;;;;;;47.93;42.93;;;;;;;;;;5092864;28;20482;-61
2023/09/10 04:57:30;;;;;;;47.97;43.07;;;;;;;;;;5093159;28;20525;-61
2023/09/10 04:59:57;;;;;;;50.03;45.13;;;;;;;;;;5092756;28;20534;-61
2023/09/10 05:02:24;;;;;;;50.27;45.23;;;;;;;;;;5092666;28;20434;-61
2023/09/10 05:04:51;;;;;;;47.47;42.83;;;;;;;;;;5092428;28;20533;-61
2023/09/10 05:07:20;;;;;;;49.63;44.60;;;;;;;;;;5092449;28;20528;-60
2023/09/10 05:09:47;;;;;;;49.00;44.03;;;;;;;;;;5092816;28;20787;-61
2023/09/10 05:12:14;;;;;;;47.40;42.70;;;;;;;;;;5092793;28;20434;-61
2023/09/10 05:14:41;;;;;;;48.80;43.73;;;;;;;;;;5092716;28;20571;-61
2023/09/10 05:17:09;;;;;;;48.63;43.63;;;;;;;;;;5092423;28;20930;-61
2023/09/10 05:19:36;;;;;;;50.23;45.20;;;;;;;;;;5092539;28;20453;-61
2023/09/10 05:22:03;;;;;;;45.73;41.27;;;;;;;;;;5092643;28;20445;-61
2023/09/10 05:24:32;;;;;;;48.50;43.47;;;;;;;;;;5092380;28;20446;-60
2023/09/10 05:26:59;;;;;;;44.10;39.80;;;;;;;;;;5092578;28;20442;-60
2023/09/10 05:29:26;;;;;;;43.50;39.30;;;;;;;;;;5092350;28;20459;-60
2023/09/10 05:31:53;;;;;;;44.27;39.77;;;;;;;;;;5092445;28;20431;-60
2023/09/10 05:34:20;;;;;;;44.57;39.97;;;;;;;;;;5096643;28;20791;-61
2023/09/10 05:36:48;;;;;;;43.47;39.07;;;;;;;;;;5096395;28;20491;-61
2023/09/10 05:39:15;;;;;;;39.77;36.07;;;;;;;;;;5096910;28;20442;-61
2023/09/10 05:41:44;;;;;;;39.47;35.50;;;;;;;;;;5096360;28;20532;-61
2023/09/10 05:44:11;;;;;;;37.70;33.97;;;;;;;;;;5096174;28;20443;-60
2023/09/10 05:46:38;;;;;;;37.40;33.70;;;;;;;;;;5096214;28;20450;-61
2023/09/10 05:49:05;;;;;;;35.00;31.57;;;;;;;;;;5095917;28;20521;-60
2023/09/10 05:51:32;;;;;;;34.20;30.80;;;;;;;;;;5096131;28;20437;-60
2023/09/10 05:54:00;;;;;;;35.60;31.83;;;;;;;;;;5095975;28;20539;-60
2023/09/10 05:56:28;;;;;;;34.50;31.13;;;;;;;;;;5096059;28;20479;-60
2023/09/10 05:58:57;;;;;;;35.20;31.70;;;;;;;;;;5096234;28;20456;-67
2023/09/10 06:01:24;;;;;;;36.83;33.27;;;;;;;;;;5095459;28;20525;-63
2023/09/10 06:03:51;;;;;;;36.00;32.47;;;;;;;;;;5096195;28;20521;-60
2023/09/10 06:06:19;;;;;;;37.50;33.73;;;;;;;;;;5095735;28;20451;-61
2023/09/10 06:08:46;;;;;;;37.13;32.30;;;;;;;;;;5095956;28;20498;-61
2023/09/10 06:11:13;;;;;;;39.90;36.00;;;;;;;;;;5095487;28;20542;-60
2023/09/10 06:13:40;;;;;;;40.07;36.23;;;;;;;;;;5095565;28;20436;-61
2023/09/10 06:16:09;;;;;;;41.17;37.10;;;;;;;;;;5095300;28;20485;-64
2023/09/10 06:18:36;;;;;;;39.93;35.73;;;;;;;;;;5095507;28;20450;-61
2023/09/10 06:21:03;;;;;;;42.13;38.23;;;;;;;;;;5095514;28;20449;-62
2023/09/10 06:23:32;;;;;;;44.60;40.20;;;;;;;;;;5095787;28;20445;-62
2023/09/10 06:25:59;;;;;;;44.77;40.30;;;;;;;;;;5095184;28;20442;-61
2023/09/10 06:28:26;;;;;;;44.17;39.50;;;;;;;;;;5095315;28;20992;-61
2023/09/10 06:30:53;;;;;;;44.07;39.67;;;;;;;;;;5095195;28;20431;-61
2023/09/10 06:33:22;;;;;;;50.40;45.53;;;;;;;;;;5095689;28;20456;-61
2023/09/10 06:35:49;;;;;;;49.90;44.67;;;;;;;;;;5095589;28;20473;-61
2023/09/10 06:38:16;;;;;;;51.60;46.10;;;;;;;;;;5095456;28;20438;-61
2023/09/10 06:40:44;;;;;;;54.30;48.80;;;;;;;;;;5095173;28;20803;-61
2023/09/10 06:43:11;;;;;;;56.37;50.37;;;;;;;;;;5094628;28;20445;-61
2023/09/10 06:45:38;;;;;;;56.70;51.00;;;;;;;;;;5095480;28;20450;-61
2023/09/10 06:48:06;;;;;;;56.00;50.43;;;;;;;;;;5095143;28;20439;-61
2023/09/10 06:50:34;;;;;;;55.70;49.70;;;;;;;;;;5094582;28;20475;-61
2023/09/10 06:53:01;;;;;;;56.67;51.10;;;;;;;;;;5094874;28;20440;-61
2023/09/10 06:55:29;;;;;;;61.27;54.87;;;;;;;;;;5095155;28;20478;-60
2023/09/10 06:57:56;;;;;;;60.90;54.70;;;;;;;;;;5095296;28;20476;-61
2023/09/10 07:00:23;;;;;;;59.30;53.40;;;;;;;;;;5094834;28;20436;-61
2023/09/10 07:02:50;;;;;;;60.33;54.23;;;;;;;;;;5094705;28;20860;-61
2023/09/10 07:05:17;;;;;;;62.63;55.87;;;;;;;;;;5094889;28;20775;-61
2023/09/10 07:07:48;;;;;;;67.20;56.20;;;;;;;;;;5094643;28;20466;-61
2023/09/10 07:10:15;;;;;;;60.80;55.07;;;;;;;;;;5095089;28;20416;-61
2023/09/10 07:12:42;;;;;;;61.03;54.63;;;;;;;;;;5094618;28;20439;-61
2023/09/10 07:15:10;;;;;;;65.17;58.60;;;;;;;;;;5094104;28;20451;-61
2023/09/10 07:17:37;;;;;;;62.40;56.30;;;;;;;;;;5094144;28;20526;-60
2023/09/10 07:20:05;;;;;;;63.00;56.57;;;;;;;;;;5094277;28;20445;-61
2023/09/10 07:22:32;;;;;;;62.70;55.90;;;;;;;;;;5094260;28;20443;-60
2023/09/10 07:25:00;;;;;;;62.67;56.33;;;;;;;;;;5094075;28;20446;-60
2023/09/10 07:27:28;;;;;;;60.47;54.40;;;;;;;;;;5094013;28;20999;-61
2023/09/10 07:29:55;;;;;;;62.60;56.47;;;;;;;;;;5094401;28;20428;-59
2023/09/10 07:32:22;;;;;;;61.00;54.90;;;;;;;;;;5094342;28;20545;-61
2023/09/10 07:34:49;;;;;;;60.23;54.17;;;;;;;;;;5094307;28;20435;-61
2023/09/10 07:37:16;;;;;;;57.20;51.50;;;;;;;;;;5093857;28;20485;-61
2023/09/10 07:39:43;;;;;;;54.83;49.50;;;;;;;;;;5094188;28;20431;-61
2023/09/10 07:42:12;;;;;;;53.40;48.27;;;;;;;;;;5093681;28;20439;-61
2023/09/10 07:44:40;;;;;;;54.10;48.80;;;;;;;;;;5094143;28;20518;-61
2023/09/10 07:47:07;;;;;;;55.73;49.97;;;;;;;;;;5093804;28;20479;-61
2023/09/10 07:49:34;;;;;;;54.77;49.20;;;;;;;;;;5093997;28;20743;-60
2023/09/10 07:52:03;;;;;;;52.97;47.67;;;;;;;;;;5093729;28;20800;-61
2023/09/10 07:54:30;;;;;;;52.37;47.03;;;;;;;;;;5093708;28;20435;-61
2023/09/10 07:56:57;;;;;;;53.23;47.90;;;;;;;;;;5092949;28;20518;-61
2023/09/10 07:59:26;;;;;;;51.67;46.47;;;;;;;;;;5093727;28;20779;-61
2023/09/10 08:01:53;;;;;;;50.87;45.87;;;;;;;;;;5093689;28;20436;-62
2023/09/10 08:04:20;;;;;;;48.60;43.43;;;;;;;;;;5093661;28;20526;-61
2023/09/10 08:06:47;;;;;;;49.70;44.60;;;;;;;;;;5093424;28;20524;-61
2023/09/10 08:09:14;;;;;;;47.13;42.50;;;;;;;;;;5094342;28;20441;-61
2023/09/10 08:11:42;;;;;;;48.20;43.57;;;;;;;;;;5093192;28;20528;-62
2023/09/10 08:14:09;;;;;;;48.40;43.40;;;;;;;;;;5093599;28;20462;-62
2023/09/10 08:16:37;;;;;;;46.00;41.40;;;;;;;;;;5093530;28;20478;-62
2023/09/10 08:19:05;;;;;;;44.57;40.27;;;;;;;;;;5093310;28;20989;-62
2023/09/10 08:21:32;;;;;;;45.57;40.77;;;;;;;;;;5093387;28;20489;-62
2023/09/10 08:23:59;;;;;;;44.10;39.90;;;;;;;;;;5093187;28;20435;-61
2023/09/10 08:26:26;;;;;;;46.30;41.83;;;;;;;;;;5093262;28;20476;-61
2023/09/10 08:28:53;;;;;;;46.73;41.70;;;;;;;;;;5092561;28;20479;-60
2023/09/10 08:31:21;;;;;;;44.93;40.73;;;;;;;;;;5093318;28;20802;-60
2023/09/10 08:33:49;;;;;;;45.77;41.33;;;;;;;;;;5093189;28;20441;-61
2023/09/10 08:36:16;;;;;;;44.20;39.90;;;;;;;;;;5093070;28;20482;-61
2023/09/10 08:38:43;;;;;;;45.73;41.10;;;;;;;;;;5092658;28;20441;-61
2023/09/10 08:41:14;;;;;;;44.23;39.93;;;;;;;;;;5092582;28;20435;-61
2023/09/10 08:43:47;;;;;;;40.70;36.70;;;;;;;;;;5093225;28;20433;-61
2023/09/10 08:46:15;;;;;;;44.97;40.33;;;;;;;;;;5092991;28;20436;-60
2023/09/10 08:48:43;;;;;;;44.27;39.97;;;;;;;;;;5092824;28;20528;-61
2023/09/10 08:51:12;;;;;;;43.97;39.37;;;;;;;;;;5092753;28;20842;-60
2023/09/10 08:53:40;;;;;;;42.17;38.03;;;;;;;;;;5092927;28;20468;-60
2023/09/10 08:56:08;;;;;;;40.27;36.37;;;;;;;;;;5092880;28;20582;-61
2023/09/10 08:58:36;;;;;;;37.77;34.10;;;;;;;;;;5093110;28;20547;-61
2023/09/10 09:01:03;;;;;;;34.30;31.00;;;;;;;;;;5093170;28;20514;-60
2023/09/10 09:03:32;;;;;;;37.53;33.87;;;;;;;;;;5092915;28;20517;-60
2023/09/10 09:06:00;;;;;;;36.10;32.57;;;;;;;;;;5093129;28;20450;-61
2023/09/10 09:08:31;;;;;;;34.80;31.10;;;;;;;;;;5097293;28;20539;-60
2023/09/10 09:10:59;;;;;;;35.57;32.00;;;;;;;;;;5097425;28;20427;-61
2023/09/10 09:13:27;;;;;;;35.33;30.97;;;;;;;;;;5096599;28;20451;-61
2023/09/10 09:15:55;;;;;;;31.70;28.70;;;;;;;;;;5096801;28;22421;-61
2023/09/10 09:18:23;;;;;;;34.00;29.70;;;;;;;;;;5096966;28;20861;-61
2023/09/10 09:20:51;;;;;;;32.07;28.77;;;;;;;;;;5096803;28;20784;-61
2023/09/10 09:23:21;;;;;;;31.33;28.50;;;;;;;;;;5096901;28;20443;-61
2023/09/10 09:25:51;;;;;;;30.70;27.43;;;;;;;;;;5097259;28;20806;-61
2023/09/10 09:28:18;;;;;;;30.33;27.27;;;;;;;;;;5097211;28;20442;-62
2023/09/10 09:30:46;;;;;;;28.47;25.70;;;;;;;;;;5096803;28;20471;-61
2023/09/10 09:33:13;;;;;;;26.77;24.23;;;;;;;;;;5096197;28;20995;-61
2023/09/10 09:35:40;;;;;;;27.90;25.23;;;;;;;;;;5096230;28;20439;-61
2023/09/10 09:38:09;;;;;;;29.40;26.43;;;;;;;;;;5096582;28;20801;-61
2023/09/10 09:40:37;;;;;;;30.03;27.30;;;;;;;;;;5096971;28;20437;-60
2023/09/10 09:43:07;;;;;;;26.03;23.43;;;;;;;;;;5096436;28;20464;-61
2023/09/10 09:45:35;;;;;;;29.77;27.03;;;;;;;;;;5096233;28;20427;-61
2023/09/10 09:48:03;;;;;;;29.67;26.87;;;;;;;;;;5096113;28;20490;-60
2023/09/10 09:50:30;;;;;;;29.50;26.70;;;;;;;;;;5095936;28;20490;-61
2023/09/10 09:52:57;;;;;;;27.53;25.00;;;;;;;;;;5096491;28;20537;-61
2023/09/10 09:55:26;;;;;;;25.97;23.70;;;;;;;;;;5096212;28;20529;-61
2023/09/10 09:57:53;;;;;;;27.50;24.40;;;;;;;;;;5096366;28;20486;-61
2023/09/10 10:00:22;;;;;;;24.20;21.80;;;;;;;;;;5096125;28;20566;-61
2023/09/10 10:02:49;;;;;;;27.13;24.43;;;;;;;;;;5095531;28;20558;-61
2023/09/10 10:05:17;;;;;;;28.77;26.00;;;;;;;;;;5096029;28;20487;-61
2023/09/10 10:07:44;;;;;;;25.27;23.17;;;;;;;;;;5095926;28;20448;-61
2023/09/10 10:10:16;;;;;;;26.30;23.60;;;;;;;;;;5095796;28;20438;-61
2023/09/10 10:12:45;;;;;;;25.23;22.83;;;;;;;;;;5095958;28;20424;-61
2023/09/10 10:15:12;;;;;;;26.23;23.93;;;;;;;;;;5095677;28;20436;-61
2023/09/10 10:17:42;;;;;;;23.80;21.27;;;;;;;;;;5095304;28;20474;-61
2023/09/10 10:20:10;;;;;;;22.20;19.93;;;;;;;;;;5095432;28;20466;-61
2023/09/10 10:22:37;;;;;;;22.73;20.53;;;;;;;;;;5095216;28;20450;-61
2023/09/10 10:25:05;;;;;;;21.40;19.40;;;;;;;;;;5095719;28;20531;-61
2023/09/10 10:27:34;;;;;;;22.03;19.83;;;;;;;;;;5095702;28;20439;-61
2023/09/10 10:30:01;;;;;;;23.87;21.40;;;;;;;;;;5095393;28;20862;-61
2023/09/10 10:32:32;;;;;;;22.10;20.20;;;;;;;;;;5095580;28;20461;-61
2023/09/10 10:35:01;;;;;;;22.23;20.00;;;;;;;;;;5095239;28;20429;-61
2023/09/10 10:37:34;;;;;;;19.37;17.10;;;;;;;;;;5095194;28;20477;-61
2023/09/10 10:40:07;;;;;;;21.47;17.97;;;;;;;;;;5095619;28;20440;-61
2023/09/10 10:42:38;;;;;;;16.17;14.40;;;;;;;;;;5095366;28;20511;-61
2023/09/10 10:45:07;;;;;;;15.73;14.30;;;;;;;;;;5095350;28;20438;-60
2023/09/10 10:47:38;;;;;;;17.67;15.87;;;;;;;;;;5095428;28;20576;-61
2023/09/10 10:50:09;;;;;;;18.80;14.00;;;;;;;;;;5094961;28;20470;-61
2023/09/10 10:52:38;;;;;;;14.07;12.57;;;;;;;;;;5095298;28;20423;-61
2023/09/10 10:55:06;;;;;;;11.43;10.30;;;;;;;;;;5095042;28;20618;-61
2023/09/10 10:57:34;;;;;;;14.60;13.27;;;;;;;;;;5094757;28;20498;-61
2023/09/10 11:00:02;;;;;;;19.63;13.13;;;;;;;;;;5094872;28;20498;-61
2023/09/10 11:02:30;;;;;;;16.20;12.83;;;;;;;;;;5094943;28;20475;-61
2023/09/10 11:04:57;;;;;;;15.47;13.83;;;;;;;;;;5094418;28;21002;-61
2023/09/10 11:07:28;;;;;;;17.30;15.90;;;;;;;;;;5094873;28;20449;-60
2023/09/10 11:09:57;;;;;;;16.30;14.90;;;;;;;;;;5094334;28;20878;-61
2023/09/10 11:12:24;;;;;;;15.23;13.70;;;;;;;;;;5094768;28;20443;-61
2023/09/10 11:15:12;;;;;;;14.40;10.27;;;;;;;;;;5094543;28;20441;-61
2023/09/10 11:17:39;;;;;;;16.20;11.60;;;;;;;;;;5094849;28;20567;-61
2023/09/10 11:20:08;;;;;;;13.80;11.73;;;;;;;;;;5093997;28;20450;-61
2023/09/10 11:25:47;;;;;;;11.20;10.10;;;;;;;;;;5172832;27;20577;-60
2023/09/10 11:28:33;;;;;;;16.23;11.20;;;;;;;;;;5151492;27;20531;-60
2023/09/10 11:31:00;;;;;;;11.80;10.43;;;;;;;;;;5151526;27;20430;-60
2023/09/10 11:33:32;;;;;;;13.17;11.40;;;;;;;;;;5151465;27;20465;-60
2023/09/10 11:35:59;;;;;;;12.63;9.87;;;;;;;;;;5151418;27;20435;-60
2023/09/10 11:38:30;;;;;;;13.03;8.47;;;;;;;;;;5151949;27;20445;-60
2023/09/10 11:41:00;;;;;;;15.50;9.20;;;;;;;;;;5151715;27;20419;-60
2023/09/10 11:43:29;;;;;;;11.33;8.90;;;;;;;;;;5151436;27;20429;-60
2023/09/10 11:45:57;;;;;;;14.70;7.80;;;;;;;;;;5151314;27;20443;-60
2023/09/10 11:48:25;;;;;;;11.53;8.50;;;;;;;;;;5151161;27;20939;-60
2023/09/10 11:50:52;;;;;;;13.00;8.77;;;;;;;;;;5151077;27;20956;-60
2023/09/10 11:53:20;;;;;;;13.97;8.57;;;;;;;;;;5151406;27;20467;-60
2023/09/10 11:55:48;;;;;;;23.40;10.50;;;;;;;;;;5151339;27;20438;-60
2023/09/10 11:58:18;;;;;;;14.60;8.60;;;;;;;;;;5151570;27;20455;-60
2023/09/10 12:00:45;;;;;;;17.40;9.00;;;;;;;;;;5150810;27;20929;-60
2023/09/10 12:03:13;;;;;;;18.40;9.17;;;;;;;;;;5150712;27;20930;-60
2023/09/10 12:05:42;;;;;;;16.10;8.73;;;;;;;;;;5151007;27;20472;-60
2023/09/10 12:08:09;;;;;;;13.73;8.83;;;;;;;;;;5150781;27;20433;-60
2023/09/10 12:10:37;;;;;;;19.97;9.67;;;;;;;;;;5150860;27;20862;-60
2023/09/10 12:13:04;;;;;;;12.90;9.23;;;;;;;;;;5151252;27;20431;-60
2023/09/10 12:15:36;;;;;;;21.33;8.83;;;;;;;;;;5150593;27;20427;-60
2023/09/10 12:18:05;;;;;;;21.70;9.07;;;;;;;;;;5151018;27;20789;-60
2023/09/10 12:20:34;;;;;;;22.77;9.40;;;;;;;;;;5150529;27;20429;-60
2023/09/10 12:23:01;;;;;;;27.33;9.10;;;;;;;;;;5150679;27;20414;-60
2023/09/10 12:25:28;;;;;;;22.03;9.03;;;;;;;;;;5150615;27;20499;-60
2023/09/10 12:27:56;;;;;;;25.93;9.63;;;;;;;;;;5150850;27;20441;-62
2023/09/10 12:30:24;;;;;;;27.50;9.93;;;;;;;;;;5150131;27;20524;-61
2023/09/10 12:32:52;;;;;;;24.63;9.00;;;;;;;;;;5150487;27;20768;-60
2023/09/10 12:35:19;;;;;;;18.77;8.20;;;;;;;;;;5146629;27;20473;-60
2023/09/10 12:37:48;;;;;;;21.53;7.80;;;;;;;;;;5136709;27;20780;-60
2023/09/10 12:40:16;;;;;;;26.87;10.07;;;;;;;;;;5136219;27;20414;-60
2023/09/10 12:42:43;;;;;;;30.63;10.73;;;;;;;;;;5136714;27;20494;-60
2023/09/10 12:45:11;;;;;;;25.10;9.10;;;;;;;;;;5136793;27;20553;-61
2023/09/10 12:47:38;;;;;;;19.00;9.10;;;;;;;;;;5136366;27;20440;-60
2023/09/10 12:50:07;;;;;;;20.60;9.00;;;;;;;;;;5136621;27;20465;-61
2023/09/10 12:52:35;;;;;;;23.47;9.93;;;;;;;;;;5136351;27;20999;-60
2023/09/10 12:55:03;;;;;;;16.87;8.87;;;;;;;;;;5136815;27;20541;-60
2023/09/10 12:57:31;;;;;;;30.20;10.10;;;;;;;;;;5135955;27;20443;-60
2023/09/10 12:59:58;;;;;;;22.20;8.80;;;;;;;;;;5136136;27;20933;-60
2023/09/10 13:02:26;;;;;;;36.50;9.10;;;;;;;;;;5136062;27;20434;-60
2023/09/10 13:04:55;;;;;;;22.87;9.43;;;;;;;;;;5136016;27;20439;-60
2023/09/10 13:07:24;;;;;;;21.00;9.63;;;;;;;;;;5136441;27;20440;-60
2023/09/10 13:09:51;;;;;;;23.73;9.50;;;;;;;;;;5136281;27;20785;-61
2023/09/10 13:12:18;;;;;;;18.10;9.17;;;;;;;;;;5135845;27;20503;-60
2023/09/10 13:14:45;;;;;;;25.13;9.93;;;;;;;;;;5135875;27;20446;-60
2023/09/10 13:17:12;;;;;;;23.17;9.83;;;;;;;;;;5136246;27;20442;-60
2023/09/10 13:19:40;;;;;;;26.90;10.47;;;;;;;;;;5136029;27;20409;-60
2023/09/10 13:22:08;;;;;;;22.57;9.77;;;;;;;;;;5136064;27;20433;-61
2023/09/10 13:24:36;;;;;;;19.33;10.07;;;;;;;;;;5135796;27;20520;-60
2023/09/10 13:27:03;;;;;;;24.97;8.60;;;;;;;;;;5135644;27;20413;-60
2023/09/10 13:29:31;;;;;;;19.50;8.70;;;;;;;;;;5135887;27;20406;-60
2023/09/10 13:31:58;;;;;;;22.50;9.80;;;;;;;;;;5135686;27;20413;-60
2023/09/10 13:34:26;;;;;;;22.10;9.10;;;;;;;;;;5135791;27;20461;-60
2023/09/10 13:36:53;;;;;;;23.03;9.67;;;;;;;;;;5135389;27;20952;-61
2023/09/10 13:39:20;;;;;;;17.97;8.57;;;;;;;;;;5136127;27;20417;-61
2023/09/10 13:41:49;;;;;;;18.30;9.00;;;;;;;;;;5135532;27;20419;-60
2023/09/10 13:44:16;;;;;;;21.10;10.90;;;;;;;;;;5135243;27;20516;-60
2023/09/10 13:46:43;;;;;;;16.93;10.97;;;;;;;;;;5135004;27;20859;-61
2023/09/10 13:49:11;;;;;;;24.70;10.63;;;;;;;;;;5135062;27;20450;-60
2023/09/10 13:51:38;;;;;;;17.63;10.37;;;;;;;;;;5135118;27;20966;-60
2023/09/10 13:54:06;;;;;;;23.23;9.90;;;;;;;;;;5135391;27;20541;-61
2023/09/10 13:56:33;;;;;;;20.60;9.27;;;;;;;;;;5135287;27;20412;-60
2023/09/10 13:59:02;;;;;;;29.30;15.87;;;;;;;;;;5134974;27;20469;-60
2023/09/10 14:01:30;;;;;;;30.93;13.87;;;;;;;;;;5135659;27;20432;-60
2023/09/10 14:03:57;;;;;;;25.33;9.60;;;;;;;;;;5135178;27;20407;-61
2023/09/10 14:06:24;;;;;;;24.67;10.67;;;;;;;;;;5134795;27;20480;-60
2023/09/10 14:08:51;;;;;;;32.63;10.60;;;;;;;;;;5135124;27;20512;-60
2023/09/10 14:11:19;;;;;;;21.80;10.43;;;;;;;;;;5135278;27;20446;-60
2023/09/10 14:13:46;;;;;;;19.30;10.10;;;;;;;;;;5135024;27;20812;-61
2023/09/10 14:16:14;;;;;;;20.30;10.97;;;;;;;;;;5134613;27;20444;-61
2023/09/10 14:18:41;;;;;;;23.37;9.07;;;;;;;;;;5134870;27;20517;-60
2023/09/10 14:21:10;;;;;;;24.20;9.90;;;;;;;;;;5133555;27;20442;-60
2023/09/10 14:23:37;;;;;;;25.53;11.60;;;;;;;;;;5133808;27;20490;-61
2023/09/10 14:26:04;;;;;;;24.33;10.07;;;;;;;;;;5134519;27;20554;-60